sensor_id;sensor_type;location;lat;lon;timestamp;temperature;humidity
67817;DHT22;54614;47.576;7.524;2023-09-19T03:56:34;25.70;83.20
67817;DHT22;54614;47.576;7.524;2023-09-19T03:59:01;25.80;83.10
67817;DHT22;54614;47.576;7.524;2023-09-19T04:01:26;25.80;83.00
67817;DHT22;54614;47.576;7.524;2023-09-19T04:03:53;25.80;83.10
67817;DHT22;54614;47.576;7.524;2023-09-19T04:06:19;25.80;83.20
67817;DHT22;54614;47.576;7.524;2023-09-19T04:08:45;25.80;83.20
67817;DHT22;54614;47.576;7.524;2023-09-19T04:11:12;25.70;83.20
67817;DHT22;54614;47.576;7.524;2023-09-19T04:13:38;25.80;83.20
67817;DHT22;54614;47.576;7.524;2023-09-19T04:16:04;25.70;83.20
67817;DHT22;54614;47.576;7.524;2023-09-19T04:18:30;25.80;83.20
67817;DHT22;54614;47.576;7.524;2023-09-19T04:21:02;25.70;83.20
67817;DHT22;54614;47.576;7.524;2023-09-19T04:23:32;25.80;83.20
67817;DHT22;54614;47.576;7.524;2023-09-19T04:25:58;25.70;83.20
67817;DHT22;54614;47.576;7.524;2023-09-19T04:28:24;25.70;83.30
67817;DHT22;54614;47.576;7.524;2023-09-19T04:30:50;25.70;83.20
67817;DHT22;54614;47.576;7.524;2023-09-19T04:33:16;25.70;83.20
67817;DHT22;54614;47.576;7.524;2023-09-19T04:35:42;25.70;83.20
67817;DHT22;54614;47.576;7.524;2023-09-19T04:38:08;25.80;83.20
67817;DHT22;54614;47.576;7.524;2023-09-19T04:40:34;25.80;84.00
67817;DHT22;54614;47.576;7.524;2023-09-19T04:43:00;25.80;83.20
67817;DHT22;54614;47.576;7.524;2023-09-19T04:45:27;25.70;83.10
67817;DHT22;54614;47.576;7.524;2023-09-19T04:47:54;25.70;83.10
67817;DHT22;54614;47.576;7.524;2023-09-19T04:50:20;25.70;83.10
67817;DHT22;54614;47.576;7.524;2023-09-19T04:52:49;25.80;83.30
67817;DHT22;54614;47.576;7.524;2023-09-19T04:55:17;25.70;83.20
67817;DHT22;54614;47.576;7.524;2023-09-19T04:57:48;25.70;83.20
67817;DHT22;54614;47.576;7.524;2023-09-19T05:00:21;25.70;83.10
67817;DHT22;54614;47.576;7.524;2023-09-19T05:02:50;25.70;83.10
67817;DHT22;54614;47.576;7.524;2023-09-19T05:05:19;25.80;83.20
67817;DHT22;54614;47.576;7.524;2023-09-19T05:07:45;25.70;83.10
67817;DHT22;54614;47.576;7.524;2023-09-19T05:10:12;25.70;83.10
67817;DHT22;54614;47.576;7.524;2023-09-19T05:12:39;25.70;83.20
67817;DHT22;54614;47.576;7.524;2023-09-19T05:15:06;25.70;83.10
67817;DHT22;54614;47.576;7.524;2023-09-19T05:17:33;25.70;83.20
67817;DHT22;54614;47.576;7.524;2023-09-19T05:20:00;25.70;83.10
67817;DHT22;54614;47.576;7.524;2023-09-19T05:22:31;25.70;83.10
67817;DHT22;54614;47.576;7.524;2023-09-19T05:24:58;25.70;83.10
67817;DHT22;54614;47.576;7.524;2023-09-19T05:27:24;25.70;83.10
67817;DHT22;54614;47.576;7.524;2023-09-19T05:29:49;25.70;83.00
67817;DHT22;54614;47.576;7.524;2023-09-19T05:32:18;25.70;83.00
67817;DHT22;54614;47.576;7.524;2023-09-19T05:34:45;25.60;81.90
67817;DHT22;54614;47.576;7.524;2023-09-19T05:37:12;25.50;81.70
67817;DHT22;54614;47.576;7.524;2023-09-19T05:39:39;25.50;81.60
67817;DHT22;54614;47.576;7.524;2023-09-19T05:42:04;25.40;81.60
67817;DHT22;54614;47.576;7.524;2023-09-19T05:44:30;25.40;82.40
67817;DHT22;54614;47.576;7.524;2023-09-19T05:46:57;25.40;82.00
67817;DHT22;54614;47.576;7.524;2023-09-19T05:49:23;25.50;82.20
67817;DHT22;54614;47.576;7.524;2023-09-19T05:51:50;25.50;82.30
67817;DHT22;54614;47.576;7.524;2023-09-19T05:54:19;25.50;82.40
67817;DHT22;54614;47.576;7.524;2023-09-19T05:56:45;25.60;83.50
67817;DHT22;54614;47.576;7.524;2023-09-19T05:59:12;25.50;83.60
67817;DHT22;54614;47.576;7.524;2023-09-19T06:01:42;25.50;83.30
67817;DHT22;54614;47.576;7.524;2023-09-19T06:04:08;25.60;83.80
67817;DHT22;54614;47.576;7.524;2023-09-19T06:06:34;25.60;83.80
67817;DHT22;54614;47.576;7.524;2023-09-19T06:09:04;25.50;83.70
67817;DHT22;54614;47.576;7.524;2023-09-19T06:11:31;25.50;83.40
67817;DHT22;54614;47.576;7.524;2023-09-19T06:14:00;25.60;83.50
67817;DHT22;54614;47.576;7.524;2023-09-19T06:16:28;25.50;83.60
67817;DHT22;54614;47.576;7.524;2023-09-19T06:18:54;25.50;83.60
67817;DHT22;54614;47.576;7.524;2023-09-19T06:21:25;25.50;83.70
67817;DHT22;54614;47.576;7.524;2023-09-19T06:23:55;25.50;83.80
67817;DHT22;54614;47.576;7.524;2023-09-19T06:26:22;25.50;83.80
67817;DHT22;54614;47.576;7.524;2023-09-19T06:28:48;25.50;83.80
67817;DHT22;54614;47.576;7.524;2023-09-19T06:31:14;25.50;83.90
67817;DHT22;54614;47.576;7.524;2023-09-19T06:33:40;25.50;83.90
67817;DHT22;54614;47.576;7.524;2023-09-19T06:36:06;25.50;83.90
67817;DHT22;54614;47.576;7.524;2023-09-19T06:38:33;25.60;83.90
67817;DHT22;54614;47.576;7.524;2023-09-19T06:41:03;25.60;83.90
67817;DHT22;54614;47.576;7.524;2023-09-19T06:43:32;25.50;83.90
67817;DHT22;54614;47.576;7.524;2023-09-19T06:45:59;25.60;84.00
67817;DHT22;54614;47.576;7.524;2023-09-19T06:48:29;25.60;84.00
67817;DHT22;54614;47.576;7.524;2023-09-19T06:50:58;25.60;84.00
67817;DHT22;54614;47.576;7.524;2023-09-19T06:53:25;25.60;84.00
67817;DHT22;54614;47.576;7.524;2023-09-19T06:55:51;25.60;84.10
67817;DHT22;54614;47.576;7.524;2023-09-19T06:58:17;25.60;84.10
67817;DHT22;54614;47.576;7.524;2023-09-19T07:00:43;25.60;84.20
67817;DHT22;54614;47.576;7.524;2023-09-19T07:03:10;25.60;84.20
67817;DHT22;54614;47.576;7.524;2023-09-19T07:05:39;25.70;84.20
67817;DHT22;54614;47.576;7.524;2023-09-19T07:08:07;25.60;84.20
67817;DHT22;54614;47.576;7.524;2023-09-19T07:10:34;25.60;84.30
67817;DHT22;54614;47.576;7.524;2023-09-19T07:13:04;25.60;84.40
67817;DHT22;54614;47.576;7.524;2023-09-19T07:15:39;25.60;84.30
67817;DHT22;54614;47.576;7.524;2023-09-19T07:18:06;25.60;84.40
67817;DHT22;54614;47.576;7.524;2023-09-19T07:20:32;25.60;84.40
67817;DHT22;54614;47.576;7.524;2023-09-19T07:22:59;25.60;84.50
67817;DHT22;54614;47.576;7.524;2023-09-19T07:25:27;25.60;84.50
67817;DHT22;54614;47.576;7.524;2023-09-19T07:27:55;25.60;84.60
67817;DHT22;54614;47.576;7.524;2023-09-19T07:30:25;25.60;84.60
67817;DHT22;54614;47.576;7.524;2023-09-19T07:32:52;25.70;84.60
67817;DHT22;54614;47.576;7.524;2023-09-19T07:35:18;25.70;84.60
67817;DHT22;54614;47.576;7.524;2023-09-19T07:37:46;25.60;84.60
67817;DHT22;54614;47.576;7.524;2023-09-19T07:40:17;25.70;84.70
67817;DHT22;54614;47.576;7.524;2023-09-19T07:42:43;25.60;84.60
67817;DHT22;54614;47.576;7.524;2023-09-19T07:45:10;25.70;84.80
67817;DHT22;54614;47.576;7.524;2023-09-19T07:47:50;25.70;84.70
67817;DHT22;54614;47.576;7.524;2023-09-19T07:50:18;25.70;84.70
67817;DHT22;54614;47.576;7.524;2023-09-19T07:52:50;25.70;84.70
67817;DHT22;54614;47.576;7.524;2023-09-19T07:55:22;25.70;84.80
67817;DHT22;54614;47.576;7.524;2023-09-19T07:57:51;25.70;84.80
67817;DHT22;54614;47.576;7.524;2023-09-19T08:00:18;25.60;84.80
67817;DHT22;54614;47.576;7.524;2023-09-19T08:02:44;25.70;85.00
67817;DHT22;54614;47.576;7.524;2023-09-19T08:05:11;25.70;85.00
67817;DHT22;54614;47.576;7.524;2023-09-19T08:07:42;25.60;84.80
67817;DHT22;54614;47.576;7.524;2023-09-19T08:10:10;25.70;85.00
67817;DHT22;54614;47.576;7.524;2023-09-19T08:12:43;25.60;84.90
67817;DHT22;54614;47.576;7.524;2023-09-19T08:17:42;25.70;85.00
67817;DHT22;54614;47.576;7.524;2023-09-19T08:20:09;25.60;85.00
67817;DHT22;54614;47.576;7.524;2023-09-19T08:22:43;25.70;85.10
67817;DHT22;54614;47.576;7.524;2023-09-19T08:25:11;25.70;85.10
67817;DHT22;54614;47.576;7.524;2023-09-19T08:27:37;25.70;85.00
67817;DHT22;54614;47.576;7.524;2023-09-19T08:30:03;25.70;85.10
67817;DHT22;54614;47.576;7.524;2023-09-19T08:32:29;25.70;85.20
67817;DHT22;54614;47.576;7.524;2023-09-19T08:34:55;25.70;85.10
67817;DHT22;54614;47.576;7.524;2023-09-19T08:37:21;25.70;85.10
67817;DHT22;54614;47.576;7.524;2023-09-19T08:39:46;25.70;85.20
67817;DHT22;54614;47.576;7.524;2023-09-19T08:42:12;25.70;85.30
67817;DHT22;54614;47.576;7.524;2023-09-19T08:44:38;25.70;85.30
67817;DHT22;54614;47.576;7.524;2023-09-19T08:47:10;25.70;85.30
67817;DHT22;54614;47.576;7.524;2023-09-19T08:52:43;25.70;85.40
67817;DHT22;54614;47.576;7.524;2023-09-19T08:55:13;25.70;85.50
67817;DHT22;54614;47.576;7.524;2023-09-19T08:57:46;25.70;85.40
67817;DHT22;54614;47.576;7.524;2023-09-19T09:00:15;25.70;85.40
67817;DHT22;54614;47.576;7.524;2023-09-19T09:02:47;25.70;85.50
67817;DHT22;54614;47.576;7.524;2023-09-19T09:05:15;25.70;85.50
67817;DHT22;54614;47.576;7.524;2023-09-19T09:07:49;25.80;85.70
67817;DHT22;54614;47.576;7.524;2023-09-19T09:10:20;25.70;85.70
67817;DHT22;54614;47.576;7.524;2023-09-19T09:12:52;25.70;85.70
67817;DHT22;54614;47.576;7.524;2023-09-19T09:15:22;25.70;85.70
67817;DHT22;54614;47.576;7.524;2023-09-19T09:17:51;25.70;85.80
67817;DHT22;54614;47.576;7.524;2023-09-19T09:20:21;25.70;85.80
67817;DHT22;54614;47.576;7.524;2023-09-19T09:22:56;25.80;85.90
67817;DHT22;54614;47.576;7.524;2023-09-19T09:25:52;25.70;85.80
67817;DHT22;54614;47.576;7.524;2023-09-19T09:28:29;25.70;86.00
67817;DHT22;54614;47.576;7.524;2023-09-19T09:30:57;25.70;86.00
67817;DHT22;54614;47.576;7.524;2023-09-19T09:33:28;25.80;86.00
67817;DHT22;54614;47.576;7.524;2023-09-19T09:35:57;25.80;86.20
67817;DHT22;54614;47.576;7.524;2023-09-19T09:38:27;25.80;86.20
67817;DHT22;54614;47.576;7.524;2023-09-19T09:41:11;25.80;86.20
67817;DHT22;54614;47.576;7.524;2023-09-19T09:43:41;25.80;86.20
67817;DHT22;54614;47.576;7.524;2023-09-19T09:46:21;25.80;86.20
67817;DHT22;54614;47.576;7.524;2023-09-19T09:49:01;25.80;86.30
67817;DHT22;54614;47.576;7.524;2023-09-19T09:54:25;25.80;86.40
67817;DHT22;54614;47.576;7.524;2023-09-19T09:57:00;25.80;86.40
67817;DHT22;54614;47.576;7.524;2023-09-19T09:59:48;25.80;86.40
67817;DHT22;54614;47.576;7.524;2023-09-19T10:02:27;25.80;86.50
67817;DHT22;54614;47.576;7.524;2023-09-19T10:04:56;25.80;86.40
67817;DHT22;54614;47.576;7.524;2023-09-19T10:07:32;25.80;86.30
67817;DHT22;54614;47.576;7.524;2023-09-19T10:10:01;25.80;86.30
67817;DHT22;54614;47.576;7.524;2023-09-19T10:12:47;25.80;86.40
67817;DHT22;54614;47.576;7.524;2023-09-19T10:15:18;25.80;86.30
67817;DHT22;54614;47.576;7.524;2023-09-19T10:17:50;25.80;86.40
67817;DHT22;54614;47.576;7.524;2023-09-19T10:20:19;25.80;86.40
67817;DHT22;54614;47.576;7.524;2023-09-19T10:23:01;25.90;86.40
67817;DHT22;54614;47.576;7.524;2023-09-19T10:25:42;25.80;86.50
67817;DHT22;54614;47.576;7.524;2023-09-19T10:28:13;25.80;86.50
67817;DHT22;54614;47.576;7.524;2023-09-19T10:30:45;25.90;86.60
67817;DHT22;54614;47.576;7.524;2023-09-19T10:33:16;25.90;86.40
67817;DHT22;54614;47.576;7.524;2023-09-19T10:35:47;25.90;86.30
67817;DHT22;54614;47.576;7.524;2023-09-19T10:38:18;25.90;86.40
67817;DHT22;54614;47.576;7.524;2023-09-19T10:40:58;25.90;86.30
67817;DHT22;54614;47.576;7.524;2023-09-19T10:43:29;25.90;86.60
67817;DHT22;54614;47.576;7.524;2023-09-19T10:46:01;26.00;86.50
67817;DHT22;54614;47.576;7.524;2023-09-19T10:48:32;25.90;86.40
67817;DHT22;54614;47.576;7.524;2023-09-19T10:51:09;25.90;86.50
67817;DHT22;54614;47.576;7.524;2023-09-19T10:53:47;25.90;86.50
67817;DHT22;54614;47.576;7.524;2023-09-19T10:56:21;25.90;86.60
67817;DHT22;54614;47.576;7.524;2023-09-19T10:59:08;25.90;86.50
67817;DHT22;54614;47.576;7.524;2023-09-19T11:01:46;25.90;86.50
67817;DHT22;54614;47.576;7.524;2023-09-19T11:07:08;25.90;86.50
67817;DHT22;54614;47.576;7.524;2023-09-19T11:14:56;25.90;86.70
67817;DHT22;54614;47.576;7.524;2023-09-19T11:17:35;26.00;86.70
67817;DHT22;54614;47.576;7.524;2023-09-19T11:30:50;26.00;86.60
67817;DHT22;54614;47.576;7.524;2023-09-19T11:36:07;26.00;86.50
67817;DHT22;54614;47.576;7.524;2023-09-19T11:49:28;26.10;86.60
67817;DHT22;54614;47.576;7.524;2023-09-19T11:52:01;26.00;86.50
67817;DHT22;54614;47.576;7.524;2023-09-19T11:54:31;26.00;86.50
67817;DHT22;54614;47.576;7.524;2023-09-19T11:56:59;26.00;86.50
67817;DHT22;54614;47.576;7.524;2023-09-19T11:59:27;26.10;86.50
67817;DHT22;54614;47.576;7.524;2023-09-19T12:01:55;26.10;87.30
67817;DHT22;54614;47.576;7.524;2023-09-19T12:09:39;26.10;87.30
67817;DHT22;54614;47.576;7.524;2023-09-19T12:12:09;26.10;87.20
67817;DHT22;54614;47.576;7.524;2023-09-19T12:14:38;26.10;87.30
67817;DHT22;54614;47.576;7.524;2023-09-19T12:17:04;26.10;87.10
67817;DHT22;54614;47.576;7.524;2023-09-19T12:19:30;26.10;87.10
67817;DHT22;54614;47.576;7.524;2023-09-19T12:22:01;26.10;87.10
67817;DHT22;54614;47.576;7.524;2023-09-19T12:24:32;26.10;87.10
67817;DHT22;54614;47.576;7.524;2023-09-19T12:27:02;26.20;87.10
67817;DHT22;54614;47.576;7.524;2023-09-19T12:29:45;26.20;87.10
67817;DHT22;54614;47.576;7.524;2023-09-19T12:32:14;26.10;87.00
67817;DHT22;54614;47.576;7.524;2023-09-19T12:34:49;26.10;87.00
67817;DHT22;54614;47.576;7.524;2023-09-19T12:37:17;26.10;87.00
67817;DHT22;54614;47.576;7.524;2023-09-19T12:39:51;26.20;87.00
67817;DHT22;54614;47.576;7.524;2023-09-19T12:42:23;26.10;87.00
67817;DHT22;54614;47.576;7.524;2023-09-19T12:44:55;26.10;87.00
67817;DHT22;54614;47.576;7.524;2023-09-19T12:47:23;26.20;87.10
67817;DHT22;54614;47.576;7.524;2023-09-19T12:50:14;26.20;87.10
67817;DHT22;54614;47.576;7.524;2023-09-19T12:52:48;26.20;87.10
67817;DHT22;54614;47.576;7.524;2023-09-19T12:55:22;26.10;87.00
67817;DHT22;54614;47.576;7.524;2023-09-19T13:00:42;26.10;87.10
67817;DHT22;54614;47.576;7.524;2023-09-19T13:03:18;26.10;87.10
67817;DHT22;54614;47.576;7.524;2023-09-19T13:06:00;26.00;87.20
67817;DHT22;54614;47.576;7.524;2023-09-19T13:08:32;26.10;87.10
67817;DHT22;54614;47.576;7.524;2023-09-19T13:13:33;26.10;86.90
67817;DHT22;54614;47.576;7.524;2023-09-19T13:16:00;26.20;87.00
67817;DHT22;54614;47.576;7.524;2023-09-19T13:18:28;26.20;86.90
67817;DHT22;54614;47.576;7.524;2023-09-19T13:21:12;26.20;86.90
67817;DHT22;54614;47.576;7.524;2023-09-19T13:24:21;26.20;86.90
67817;DHT22;54614;47.576;7.524;2023-09-19T13:26:48;26.20;86.70
67817;DHT22;54614;47.576;7.524;2023-09-19T13:29:15;26.20;86.70
67817;DHT22;54614;47.576;7.524;2023-09-19T13:31:50;26.20;86.70
67817;DHT22;54614;47.576;7.524;2023-09-19T13:34:19;26.20;86.80
67817;DHT22;54614;47.576;7.524;2023-09-19T13:36:46;26.20;86.80
67817;DHT22;54614;47.576;7.524;2023-09-19T13:39:18;26.20;86.90
67817;DHT22;54614;47.576;7.524;2023-09-19T13:41:45;26.20;86.80
67817;DHT22;54614;47.576;7.524;2023-09-19T13:44:12;26.30;86.90
67817;DHT22;54614;47.576;7.524;2023-09-19T13:46:39;26.30;86.90
67817;DHT22;54614;47.576;7.524;2023-09-19T13:49:06;26.30;86.90
67817;DHT22;54614;47.576;7.524;2023-09-19T13:51:32;26.20;86.80
67817;DHT22;54614;47.576;7.524;2023-09-19T13:53:58;26.20;86.90
67817;DHT22;54614;47.576;7.524;2023-09-19T13:56:26;26.20;86.80
67817;DHT22;54614;47.576;7.524;2023-09-19T13:58:56;26.30;86.90
67817;DHT22;54614;47.576;7.524;2023-09-19T14:01:22;26.30;86.80
67817;DHT22;54614;47.576;7.524;2023-09-19T14:03:48;26.30;86.80
67817;DHT22;54614;47.576;7.524;2023-09-19T14:06:16;26.30;86.90
67817;DHT22;54614;47.576;7.524;2023-09-19T14:08:42;26.30;86.70
67817;DHT22;54614;47.576;7.524;2023-09-19T14:11:10;26.30;86.80
67817;DHT22;54614;47.576;7.524;2023-09-19T14:13:36;26.20;87.30
67817;DHT22;54614;47.576;7.524;2023-09-19T14:16:08;26.20;87.50
67817;DHT22;54614;47.576;7.524;2023-09-19T14:18:34;26.20;87.30
67817;DHT22;54614;47.576;7.524;2023-09-19T14:21:04;26.20;87.40
67817;DHT22;54614;47.576;7.524;2023-09-19T14:23:40;26.10;87.40
67817;DHT22;54614;47.576;7.524;2023-09-19T14:26:07;26.20;87.40
67817;DHT22;54614;47.576;7.524;2023-09-19T14:28:34;26.20;87.30
67817;DHT22;54614;47.576;7.524;2023-09-19T14:31:07;26.20;87.30
67817;DHT22;54614;47.576;7.524;2023-09-19T14:33:35;26.20;87.30
67817;DHT22;54614;47.576;7.524;2023-09-19T14:36:08;26.20;87.20
67817;DHT22;54614;47.576;7.524;2023-09-19T14:38:37;26.20;87.20
67817;DHT22;54614;47.576;7.524;2023-09-19T14:41:05;26.20;87.90
67817;DHT22;54614;47.576;7.524;2023-09-19T14:43:31;26.20;87.60
67817;DHT22;54614;47.576;7.524;2023-09-19T14:46:05;26.20;87.60
67817;DHT22;54614;47.576;7.524;2023-09-19T14:48:35;26.20;87.40
67817;DHT22;54614;47.576;7.524;2023-09-19T14:51:05;26.20;87.40
67817;DHT22;54614;47.576;7.524;2023-09-19T14:53:32;26.20;87.20
67817;DHT22;54614;47.576;7.524;2023-09-19T14:56:02;26.20;87.50
67817;DHT22;54614;47.576;7.524;2023-09-19T14:58:31;26.30;87.90
67817;DHT22;54614;47.576;7.524;2023-09-19T15:01:08;26.20;87.60
67817;DHT22;54614;47.576;7.524;2023-09-19T15:03:36;26.20;87.50
67817;DHT22;54614;47.576;7.524;2023-09-19T15:06:06;26.20;87.40
67817;DHT22;54614;47.576;7.524;2023-09-19T15:08:35;26.40;89.50
67817;DHT22;54614;47.576;7.524;2023-09-19T15:11:08;26.40;89.40
67817;DHT22;54614;47.576;7.524;2023-09-19T15:13:36;26.30;89.00
67817;DHT22;54614;47.576;7.524;2023-09-19T15:16:07;26.30;88.90
67817;DHT22;54614;47.576;7.524;2023-09-19T15:18:37;26.30;88.90
67817;DHT22;54614;47.576;7.524;2023-09-19T15:21:05;26.30;89.00
67817;DHT22;54614;47.576;7.524;2023-09-19T15:23:33;26.20;88.80
67817;DHT22;54614;47.576;7.524;2023-09-19T15:26:03;26.30;88.80
67817;DHT22;54614;47.576;7.524;2023-09-19T15:28:31;26.30;88.70
67817;DHT22;54614;47.576;7.524;2023-09-19T15:33:30;26.40;88.40
67817;DHT22;54614;47.576;7.524;2023-09-19T15:36:06;26.40;88.60
67817;DHT22;54614;47.576;7.524;2023-09-19T15:41:33;26.40;88.80
67817;DHT22;54614;47.576;7.524;2023-09-19T15:44:01;26.40;88.50
67817;DHT22;54614;47.576;7.524;2023-09-19T15:46:29;26.40;88.40
67817;DHT22;54614;47.576;7.524;2023-09-19T15:48:56;26.40;88.30
67817;DHT22;54614;47.576;7.524;2023-09-19T15:51:23;26.40;88.00
67817;DHT22;54614;47.576;7.524;2023-09-19T15:53:51;26.30;86.40
67817;DHT22;54614;47.576;7.524;2023-09-19T15:56:19;26.30;86.10
67817;DHT22;54614;47.576;7.524;2023-09-19T15:58:48;26.20;82.90
67817;DHT22;54614;47.576;7.524;2023-09-19T16:01:18;26.20;82.10
67817;DHT22;54614;47.576;7.524;2023-09-19T16:03:50;26.20;82.00
67817;DHT22;54614;47.576;7.524;2023-09-19T16:06:26;26.10;81.60
67817;DHT22;54614;47.576;7.524;2023-09-19T16:08:58;26.10;81.20
67817;DHT22;54614;47.576;7.524;2023-09-19T16:11:26;26.10;80.80
67817;DHT22;54614;47.576;7.524;2023-09-19T16:13:53;26.10;80.50
67817;DHT22;54614;47.576;7.524;2023-09-19T16:16:20;26.10;79.80
67817;DHT22;54614;47.576;7.524;2023-09-19T16:18:49;26.10;79.80
67817;DHT22;54614;47.576;7.524;2023-09-19T16:21:17;26.00;79.90
67817;DHT22;54614;47.576;7.524;2023-09-19T16:23:48;26.00;80.00
67817;DHT22;54614;47.576;7.524;2023-09-19T16:26:19;26.00;79.90
67817;DHT22;54614;47.576;7.524;2023-09-19T16:28:49;26.00;79.80
67817;DHT22;54614;47.576;7.524;2023-09-19T16:31:16;26.00;79.50
67817;DHT22;54614;47.576;7.524;2023-09-19T16:33:44;25.90;79.20
67817;DHT22;54614;47.576;7.524;2023-09-19T16:36:16;25.90;79.00
67817;DHT22;54614;47.576;7.524;2023-09-19T16:38:44;25.90;78.80
67817;DHT22;54614;47.576;7.524;2023-09-19T16:41:13;25.90;79.30
67817;DHT22;54614;47.576;7.524;2023-09-19T16:43:39;25.90;79.20
67817;DHT22;54614;47.576;7.524;2023-09-19T16:46:08;25.80;79.00
67817;DHT22;54614;47.576;7.524;2023-09-19T16:48:39;25.90;79.20
67817;DHT22;54614;47.576;7.524;2023-09-19T16:51:08;25.80;79.10
67817;DHT22;54614;47.576;7.524;2023-09-19T16:53:36;25.80;79.00
67817;DHT22;54614;47.576;7.524;2023-09-19T16:56:09;25.80;78.90
67817;DHT22;54614;47.576;7.524;2023-09-19T16:58:39;25.80;78.90
67817;DHT22;54614;47.576;7.524;2023-09-19T17:01:13;25.80;79.00
67817;DHT22;54614;47.576;7.524;2023-09-19T17:03:42;25.80;79.00
67817;DHT22;54614;47.576;7.524;2023-09-19T17:06:09;25.80;79.10
67817;DHT22;54614;47.576;7.524;2023-09-19T17:08:38;25.70;79.00
67817;DHT22;54614;47.576;7.524;2023-09-19T17:11:06;25.70;79.10
67817;DHT22;54614;47.576;7.524;2023-09-19T17:13:36;25.80;79.20
67817;DHT22;54614;47.576;7.524;2023-09-19T17:16:10;25.70;79.10
67817;DHT22;54614;47.576;7.524;2023-09-19T17:18:38;25.70;79.60
67817;DHT22;54614;47.576;7.524;2023-09-19T17:21:05;25.70;79.20
67817;DHT22;54614;47.576;7.524;2023-09-19T17:23:34;25.70;79.40
67817;DHT22;54614;47.576;7.524;2023-09-19T17:26:04;25.70;79.50
67817;DHT22;54614;47.576;7.524;2023-09-19T17:28:36;25.70;79.40
67817;DHT22;54614;47.576;7.524;2023-09-19T17:31:08;25.60;79.50
67817;DHT22;54614;47.576;7.524;2023-09-19T17:33:40;25.60;79.60
67817;DHT22;54614;47.576;7.524;2023-09-19T17:36:36;25.60;79.60
67817;DHT22;54614;47.576;7.524;2023-09-19T17:39:02;25.50;79.40
67817;DHT22;54614;47.576;7.524;2023-09-19T17:41:30;25.50;79.40
67817;DHT22;54614;47.576;7.524;2023-09-19T17:43:58;25.50;79.30
67817;DHT22;54614;47.576;7.524;2023-09-19T17:46:24;25.50;79.20
67817;DHT22;54614;47.576;7.524;2023-09-19T17:48:59;25.50;79.10
67817;DHT22;54614;47.576;7.524;2023-09-19T17:51:28;25.50;79.30
67817;DHT22;54614;47.576;7.524;2023-09-19T17:53:54;25.40;79.20
67817;DHT22;54614;47.576;7.524;2023-09-19T17:56:24;25.40;79.20
67817;DHT22;54614;47.576;7.524;2023-09-19T17:58:50;25.40;79.20
67817;DHT22;54614;47.576;7.524;2023-09-19T18:01:26;25.40;79.30
67817;DHT22;54614;47.576;7.524;2023-09-19T18:03:57;25.40;79.40
67817;DHT22;54614;47.576;7.524;2023-09-19T18:06:24;25.30;79.40
67817;DHT22;54614;47.576;7.524;2023-09-19T18:08:51;25.40;79.70
67817;DHT22;54614;47.576;7.524;2023-09-19T18:11:18;25.30;79.90
67817;DHT22;54614;47.576;7.524;2023-09-19T18:13:49;25.40;80.10
67817;DHT22;54614;47.576;7.524;2023-09-19T18:16:18;25.30;80.30
67817;DHT22;54614;47.576;7.524;2023-09-19T18:18:45;25.20;80.60
67817;DHT22;54614;47.576;7.524;2023-09-19T18:21:14;25.20;81.50
67817;DHT22;54614;47.576;7.524;2023-09-19T18:23:40;25.20;80.90
67817;DHT22;54614;47.576;7.524;2023-09-19T18:26:06;25.30;81.10
67817;DHT22;54614;47.576;7.524;2023-09-19T18:28:35;25.30;81.20
67817;DHT22;54614;47.576;7.524;2023-09-19T18:31:06;25.30;81.20
67817;DHT22;54614;47.576;7.524;2023-09-19T18:33:32;25.40;81.30
67817;DHT22;54614;47.576;7.524;2023-09-19T18:36:02;25.30;81.50
67817;DHT22;54614;47.576;7.524;2023-09-19T18:38:29;25.40;81.80
67817;DHT22;54614;47.576;7.524;2023-09-19T18:40:55;25.40;81.70
67817;DHT22;54614;47.576;7.524;2023-09-19T18:43:21;25.50;81.60
67817;DHT22;54614;47.576;7.524;2023-09-19T18:45:56;25.50;81.80
67817;DHT22;54614;47.576;7.524;2023-09-19T18:48:23;25.50;82.00
67817;DHT22;54614;47.576;7.524;2023-09-19T18:50:50;25.50;82.10
67817;DHT22;54614;47.576;7.524;2023-09-19T18:53:17;25.50;82.30
67817;DHT22;54614;47.576;7.524;2023-09-19T18:55:44;25.40;82.50
67817;DHT22;54614;47.576;7.524;2023-09-19T18:58:11;25.50;82.60
67817;DHT22;54614;47.576;7.524;2023-09-19T19:00:36;25.50;82.60
67817;DHT22;54614;47.576;7.524;2023-09-19T19:03:02;25.40;82.60
67817;DHT22;54614;47.576;7.524;2023-09-19T19:05:34;25.40;82.60
67817;DHT22;54614;47.576;7.524;2023-09-19T19:08:03;25.50;82.80
67817;DHT22;54614;47.576;7.524;2023-09-19T19:10:29;25.50;82.80
67817;DHT22;54614;47.576;7.524;2023-09-19T19:12:55;25.50;82.90
67817;DHT22;54614;47.576;7.524;2023-09-19T19:15:22;25.50;83.00
67817;DHT22;54614;47.576;7.524;2023-09-19T19:17:49;25.50;83.10
67817;DHT22;54614;47.576;7.524;2023-09-19T19:20:15;25.40;83.00
67817;DHT22;54614;47.576;7.524;2023-09-19T19:22:43;25.50;83.20
67817;DHT22;54614;47.576;7.524;2023-09-19T19:25:09;25.50;83.20
67817;DHT22;54614;47.576;7.524;2023-09-19T19:27:35;25.50;83.20
67817;DHT22;54614;47.576;7.524;2023-09-19T19:30:01;25.50;83.40
67817;DHT22;54614;47.576;7.524;2023-09-19T19:32:26;25.50;83.30
67817;DHT22;54614;47.576;7.524;2023-09-19T19:34:53;25.50;83.40
67817;DHT22;54614;47.576;7.524;2023-09-19T19:37:20;25.50;83.40
67817;DHT22;54614;47.576;7.524;2023-09-19T19:39:46;25.50;83.50
67817;DHT22;54614;47.576;7.524;2023-09-19T19:42:12;25.50;83.60
67817;DHT22;54614;47.576;7.524;2023-09-19T19:44:38;25.50;83.60
67817;DHT22;54614;47.576;7.524;2023-09-19T19:47:04;25.50;83.70
67817;DHT22;54614;47.576;7.524;2023-09-19T19:49:30;25.50;83.80
67817;DHT22;54614;47.576;7.524;2023-09-19T19:51:57;25.50;83.80
67817;DHT22;54614;47.576;7.524;2023-09-19T19:54:22;25.50;83.90
67817;DHT22;54614;47.576;7.524;2023-09-19T19:56:48;25.50;84.00
67817;DHT22;54614;47.576;7.524;2023-09-19T19:59:14;25.50;84.00
67817;DHT22;54614;47.576;7.524;2023-09-19T20:01:40;25.50;84.00
67817;DHT22;54614;47.576;7.524;2023-09-19T20:04:06;25.50;84.00
67817;DHT22;54614;47.576;7.524;2023-09-19T20:06:32;25.60;84.10
67817;DHT22;54614;47.576;7.524;2023-09-19T20:08:59;25.50;84.20
67817;DHT22;54614;47.576;7.524;2023-09-19T20:11:25;25.50;84.20
67817;DHT22;54614;47.576;7.524;2023-09-19T20:13:55;25.60;83.60
67817;DHT22;54614;47.576;7.524;2023-09-19T20:16:24;25.80;83.20
67817;DHT22;54614;47.576;7.524;2023-09-19T20:18:58;25.90;83.20
67817;DHT22;54614;47.576;7.524;2023-09-19T20:21:25;25.90;83.10
67817;DHT22;54614;47.576;7.524;2023-09-19T20:23:50;25.90;83.00
67817;DHT22;54614;47.576;7.524;2023-09-19T20:26:17;26.00;83.00
67817;DHT22;54614;47.576;7.524;2023-09-19T20:28:43;25.90;82.90
67817;DHT22;54614;47.576;7.524;2023-09-19T20:31:10;25.90;82.90
67817;DHT22;54614;47.576;7.524;2023-09-19T20:33:39;25.90;83.00
67817;DHT22;54614;47.576;7.524;2023-09-19T20:36:06;25.90;83.40